Time;durP1;ratioP1;P1;durP2;ratioP2;P2;SDS_P1;SDS_P2;PMS_P1;PMS_P2;Temp;Humidity;BMP_temperature;BMP_pressure;BME280_temperature;BME280_humidity;BME280_pressure;Samples;Min_cycle;Max_cycle;Signal;HPM_P1;HPM_P2
2023/07/14 00:01:44;;;;;;;4.38;2.50;;;;;;;19.10;37.83;101377.97;5013478;28;20068;-77
2023/07/14 00:04:16;;;;;;;5.20;2.30;;;;;;;19.11;37.85;101371.38;5012851;28;20103;-77
2023/07/14 00:06:46;;;;;;;4.28;2.30;;;;;;;19.08;38.11;101387.50;5031207;28;20529;-78
2023/07/14 00:09:24;;;;;;;3.30;2.20;;;;;;;19.09;37.98;101384.56;5034627;28;20123;-78
2023/07/14 00:11:52;;;;;;;3.42;2.00;;;;;;;19.06;38.09;101381.25;5019903;28;20053;-77
2023/07/14 00:14:20;;;;;;;5.32;2.47;;;;;;;19.05;38.06;101374.00;5023711;28;20532;-79
2023/07/14 00:16:48;;;;;;;4.60;2.30;;;;;;;19.05;37.82;101374.84;5016882;28;20084;-78
2023/07/14 00:19:19;;;;;;;4.32;2.47;;;;;;;19.06;38.04;101370.16;5013467;28;20057;-78
2023/07/14 00:21:49;;;;;;;4.25;2.25;;;;;;;19.03;37.90;101362.22;5009798;28;20041;-78
2023/07/14 00:24:20;;;;;;;3.90;2.20;;;;;;;19.02;37.89;101357.72;5028228;28;20409;-78
2023/07/14 00:26:53;;;;;;;4.45;2.33;;;;;;;19.03;37.54;101363.09;5011369;28;20129;-78
2023/07/14 00:29:34;;;;;;;;;;;;;;;18.70;38.22;101362.28;5009651;28;20137;-77
2023/07/14 00:32:02;;;;;;;3.95;2.08;;;;;;;18.93;37.51;101359.63;5028474;28;20012;-77
2023/07/14 00:34:32;;;;;;;3.50;2.20;;;;;;;18.96;37.54;101359.28;5025469;28;20045;-77
2023/07/14 00:37:00;;;;;;;4.18;2.10;;;;;;;18.93;37.96;101362.41;5011033;28;20524;-78
2023/07/14 00:39:29;;;;;;;4.38;2.17;;;;;;;18.91;37.70;101358.94;5027275;28;20065;-77
2023/07/14 00:41:57;;;;;;;4.10;2.22;;;;;;;18.90;37.96;101355.31;5008117;28;20038;-77
2023/07/14 00:44:25;;;;;;;3.35;2.00;;;;;;;18.88;37.53;101356.53;5029118;28;20048;-79
2023/07/14 00:46:53;;;;;;;4.00;2.17;;;;;;;18.84;37.71;101353.25;5012042;28;20045;-80
2023/07/14 00:49:29;;;;;;;4.55;2.40;;;;;;;18.84;37.73;101350.47;5011001;28;20046;-79
2023/07/14 00:52:05;;;;;;;3.97;2.13;;;;;;;18.84;38.10;101355.16;5011265;28;20042;-79
2023/07/14 00:54:34;;;;;;;3.70;2.00;;;;;;;18.76;37.49;101350.50;5014085;28;20501;-78
2023/07/14 00:57:02;;;;;;;3.45;2.08;;;;;;;18.75;37.34;101357.06;5013754;28;20129;-77
2023/07/14 00:59:33;;;;;;;3.40;1.92;;;;;;;18.75;37.50;101348.75;5012361;28;20061;-77
2023/07/14 01:02:19;;;;;;;3.60;2.20;;;;;;;18.72;38.00;101346.31;5006092;28;20498;-77
2023/07/14 01:04:53;;;;;;;4.20;2.20;;;;;;;18.70;37.46;101350.34;5009232;28;20038;-78
2023/07/14 01:07:27;;;;;;;4.57;1.95;;;;;;;18.68;38.32;101352.41;5011191;28;20049;-78
2023/07/14 01:09:58;;;;;;;3.72;2.00;;;;;;;18.66;37.45;101355.34;5010525;28;20049;-79
2023/07/14 01:12:29;;;;;;;3.63;2.10;;;;;;;18.65;37.79;101356.38;5021936;28;20053;-78
2023/07/14 01:14:58;;;;;;;2.70;1.80;;;;;;;18.63;37.94;101344.63;5011651;28;20293;-77
2023/07/14 01:17:27;;;;;;;3.70;1.98;;;;;;;18.66;38.05;101348.94;5010968;28;20158;-78
2023/07/14 01:19:59;;;;;;;3.72;2.00;;;;;;;18.69;37.75;101343.91;5031896;28;20048;-77
2023/07/14 01:22:39;;;;;;;3.85;2.00;;;;;;;18.71;37.81;101341.84;5030231;28;20077;-79
2023/07/14 01:25:19;;;;;;;4.75;2.20;;;;;;;18.74;37.92;101347.03;5028846;28;20054;-78
2023/07/14 01:27:49;;;;;;;3.72;2.10;;;;;;;18.74;37.65;101355.34;5030211;28;20124;-78
2023/07/14 01:30:20;;;;;;;4.75;2.10;;;;;;;18.73;37.39;101342.50;5022431;28;20409;-78
2023/07/14 01:32:51;;;;;;;4.72;2.10;;;;;;;18.74;37.80;101349.78;5012306;28;20088;-78
2023/07/14 01:35:24;;;;;;;3.85;2.20;;;;;;;18.76;37.43;101350.50;5007102;28;20049;-77
2023/07/14 01:37:52;;;;;;;3.45;2.20;;;;;;;18.73;37.37;101349.97;5022042;28;20049;-76
2023/07/14 01:40:21;;;;;;;3.70;1.85;;;;;;;18.74;38.02;101355.34;5013210;28;20042;-78
2023/07/14 01:42:55;;;;;;;3.78;2.20;;;;;;;18.75;37.93;101345.97;5008890;28;20117;-78
2023/07/14 01:45:27;;;;;;;3.33;2.10;;;;;;;18.74;37.63;101349.78;5008051;28;20105;-78
2023/07/14 01:47:58;;;;;;;2.63;1.90;;;;;;;18.73;37.47;101350.81;5008766;28;20057;-78
2023/07/14 01:50:31;;;;;;;3.33;1.97;;;;;;;18.73;37.87;101344.41;5028200;28;20061;-77
2023/07/14 01:53:04;;;;;;;3.72;1.88;;;;;;;18.75;37.88;101345.13;5043029;28;20312;-78
2023/07/14 01:55:34;;;;;;;3.78;2.20;;;;;;;18.72;37.61;101343.53;5026293;28;20132;-77
2023/07/14 01:58:08;;;;;;;3.17;2.10;;;;;;;18.75;37.65;101342.34;5034779;28;20121;-78
2023/07/14 02:00:38;;;;;;;3.58;2.03;;;;;;;18.70;37.76;101339.25;5031206;28;20077;-78
2023/07/14 02:03:10;;;;;;;4.95;2.17;;;;;;;18.73;37.83;101342.50;5008284;28;20038;-77
2023/07/14 02:05:39;;;;;;;4.97;2.53;;;;;;;18.70;37.82;101342.00;5021973;28;20046;-78
2023/07/14 02:08:13;;;;;;;5.80;2.10;;;;;;;18.74;37.87;101340.59;5021903;28;20401;-78
2023/07/14 02:10:41;;;;;;;3.72;2.40;;;;;;;18.72;37.84;101346.31;5008041;28;20127;-77
2023/07/14 02:13:13;;;;;;;4.43;2.40;;;;;;;18.75;37.95;101339.56;5007620;28;20030;-78
2023/07/14 02:15:41;;;;;;;3.92;2.40;;;;;;;18.72;37.75;101342.72;5016632;28;20105;-77
2023/07/14 02:18:13;;;;;;;3.42;2.13;;;;;;;18.76;38.15;101335.75;5040979;28;20042;-77
2023/07/14 02:20:43;;;;;;;4.95;2.28;;;;;;;18.73;37.67;101336.09;5025058;28;20345;-78
2023/07/14 02:23:16;;;;;;;3.67;2.08;;;;;;;18.76;37.79;101336.63;5043064;28;20037;-78
2023/07/14 02:25:46;;;;;;;4.47;2.25;;;;;;;18.73;37.84;101327.78;5034906;28;20038;-77
2023/07/14 02:28:16;;;;;;;4.88;2.22;;;;;;;18.76;37.66;101333.84;5010488;28;20050;-77
2023/07/14 02:30:49;;;;;;;3.03;2.00;;;;;;;18.76;37.71;101333.84;5026874;28;20043;-77
2023/07/14 02:33:23;;;;;;;3.85;2.45;;;;;;;18.77;37.77;101335.59;5026788;28;20046;-77
2023/07/14 02:35:58;;;;;;;4.22;2.22;;;;;;;18.77;38.31;101335.59;5007469;28;20050;-77
2023/07/14 02:38:26;;;;;;;3.33;2.00;;;;;;;18.75;37.96;101334.88;5009130;28;20042;-77
2023/07/14 02:40:55;;;;;;;3.50;2.40;;;;;;;18.77;38.15;101337.50;5010862;28;20417;-77
2023/07/14 02:43:24;;;;;;;3.47;2.20;;;;;;;18.77;37.78;101326.41;5008547;28;20786;-77
2023/07/14 02:45:56;;;;;;;3.63;2.20;;;;;;;18.79;37.89;101335.41;5009664;28;20061;-78
2023/07/14 02:48:29;;;;;;;3.67;2.27;;;;;;;18.75;38.38;101323.78;5009778;28;20771;-77
2023/07/14 02:50:58;;;;;;;3.30;2.03;;;;;;;18.75;37.88;101323.78;5009618;28;20038;-77
2023/07/14 02:53:26;;;;;;;3.97;2.33;;;;;;;18.74;37.90;101330.38;5010041;28;20148;-77
2023/07/14 02:55:53;;;;;;;3.55;2.35;;;;;;;18.74;37.99;101324.84;5025926;28;20157;-77
2023/07/14 02:58:21;;;;;;;4.30;2.75;;;;;;;18.74;38.11;101324.84;5009886;28;20065;-77
2023/07/14 03:00:51;;;;;;;3.42;2.25;;;;;;;18.77;38.25;101329.16;5009183;28;20108;-77
2023/07/14 03:03:19;;;;;;;4.18;2.13;;;;;;;18.73;38.09;101325.88;5007353;28;20065;-78
2023/07/14 03:05:47;;;;;;;5.10;2.50;;;;;;;18.73;38.26;101325.00;5008987;28;20050;-78
2023/07/14 03:08:17;;;;;;;4.05;2.25;;;;;;;18.75;37.72;101325.69;5008658;28;20052;-77
2023/07/14 03:10:47;;;;;;;4.28;2.30;;;;;;;18.72;38.26;101324.13;5008581;28;20068;-78
2023/07/14 03:13:17;;;;;;;3.45;2.30;;;;;;;18.71;38.06;101321.56;5007683;28;20046;-78
2023/07/14 03:15:45;;;;;;;3.97;2.60;;;;;;;18.68;38.36;101325.56;5024518;28;20527;-78
2023/07/14 03:18:15;;;;;;;4.38;2.20;;;;;;;18.68;37.94;101322.78;5006991;28;20046;-78
2023/07/14 03:20:44;;;;;;;3.75;2.40;;;;;;;18.66;37.89;101324.00;5007891;28;20689;-78
2023/07/14 03:23:12;;;;;;;3.58;2.13;;;;;;;18.64;38.15;101321.38;5005598;28;20065;-78
2023/07/14 03:25:40;;;;;;;4.05;2.40;;;;;;;18.64;38.09;101318.59;5024614;28;20044;-78
2023/07/14 03:28:09;;;;;;;3.45;2.03;;;;;;;18.63;38.49;101313.28;5023632;28;20065;-77
2023/07/14 03:30:40;;;;;;;4.43;2.53;;;;;;;18.65;38.62;101323.13;5003646;28;20042;-78
2023/07/14 03:33:08;;;;;;;9.00;2.63;;;;;;;18.59;38.63;101314.66;5009231;28;20053;-77
2023/07/14 03:35:38;;;;;;;4.10;2.20;;;;;;;18.63;38.51;101316.91;5025028;28;20029;-77
2023/07/14 03:38:06;;;;;;;4.35;2.42;;;;;;;18.60;38.59;101311.69;5027201;28;20077;-77
2023/07/14 03:40:34;;;;;;;4.80;2.42;;;;;;;18.61;38.50;101304.25;5023310;28;20056;-78
2023/07/14 03:43:03;;;;;;;4.43;2.75;;;;;;;18.59;38.60;101307.19;5012061;28;20099;-77
2023/07/14 03:45:31;;;;;;;3.38;2.15;;;;;;;18.59;38.30;101309.97;5023245;28;20042;-78
2023/07/14 03:47:59;;;;;;;4.10;2.47;;;;;;;18.57;38.57;101308.41;5034732;28;20414;-77
2023/07/14 03:50:27;;;;;;;5.05;2.70;;;;;;;18.56;38.59;101306.66;5009158;28;20038;-78
2023/07/14 03:52:57;;;;;;;4.20;2.30;;;;;;;18.56;38.37;101303.91;5024181;28;20042;-77
2023/07/14 03:55:25;;;;;;;4.05;2.30;;;;;;;18.52;38.69;101306.19;5010005;28;20472;-77
2023/07/14 03:57:53;;;;;;;3.97;2.60;;;;;;;18.52;38.48;101306.19;5024960;28;20048;-77
2023/07/14 04:00:28;;;;;;;3.88;2.47;;;;;;;18.51;38.54;101307.22;5011481;28;20037;-78
2023/07/14 04:02:56;;;;;;;3.55;2.40;;;;;;;18.51;38.74;101310.84;5009625;28;20187;-77
2023/07/14 04:05:25;;;;;;;4.35;2.72;;;;;;;18.52;38.82;101311.72;5009392;28;20548;-78
2023/07/14 04:07:57;;;;;;;3.83;2.58;;;;;;;18.53;38.93;101305.13;5004230;28;20046;-77
2023/07/14 04:10:25;;;;;;;4.60;2.65;;;;;;;18.51;38.56;101307.22;5021321;28;20212;-78
2023/07/14 04:12:53;;;;;;;5.03;2.80;;;;;;;18.50;38.69;101306.34;5005197;28;20042;-78
2023/07/14 04:15:21;;;;;;;4.65;3.15;;;;;;;18.49;38.76;101306.50;5007052;28;20057;-78
2023/07/14 04:17:50;;;;;;;4.50;3.10;;;;;;;18.49;38.81;101307.38;5009237;28;21220;-77
2023/07/14 04:20:18;;;;;;;4.72;2.80;;;;;;;18.48;38.64;101313.97;5027939;28;20115;-78
2023/07/14 04:22:46;;;;;;;5.90;2.90;;;;;;;18.48;38.61;101307.53;5016772;28;20042;-77
2023/07/14 04:25:15;;;;;;;5.28;3.00;;;;;;;18.48;38.59;101311.19;5024120;28;20049;-78
2023/07/14 04:27:43;;;;;;;4.80;2.80;;;;;;;18.44;38.51;101312.56;5028272;28;20069;-78
2023/07/14 04:30:12;;;;;;;5.10;2.75;;;;;;;18.45;38.86;101311.53;5024668;28;21814;-77
2023/07/14 04:32:42;;;;;;;4.60;2.88;;;;;;;18.43;39.10;101319.13;5013309;28;20042;-78
2023/07/14 04:35:10;;;;;;;4.70;2.85;;;;;;;18.42;38.88;101305.44;5008747;28;20053;-78
2023/07/14 04:37:38;;;;;;;4.47;2.80;;;;;;;18.42;39.00;101302.69;5003929;28;20168;-77
2023/07/14 04:40:07;;;;;;;5.15;2.85;;;;;;;18.41;38.97;101304.59;5024857;28;20046;-78
2023/07/14 04:42:56;;;;;;;3.67;2.60;;;;;;;18.41;38.83;101300.94;5008144;28;20081;-78
2023/07/14 04:45:24;;;;;;;4.97;2.90;;;;;;;18.39;38.98;101297.50;5004269;28;20049;-78
2023/07/14 04:47:53;;;;;;;4.15;3.00;;;;;;;18.38;38.94;101309.63;5023301;28;20142;-77
2023/07/14 04:50:21;;;;;;;4.07;2.80;;;;;;;18.38;39.44;101307.72;5007273;28;20046;-78
2023/07/14 04:52:49;;;;;;;4.95;3.22;;;;;;;18.38;39.03;101312.41;5007560;28;20538;-78
2023/07/14 04:55:17;;;;;;;7.38;3.05;;;;;;;18.39;39.14;101311.38;5008442;28;20073;-79
2023/07/14 04:57:47;;;;;;;4.72;3.17;;;;;;;18.38;39.52;101304.09;5009918;28;20128;-79
2023/07/14 05:00:18;;;;;;;5.13;2.90;;;;;;;18.40;39.03;101302.84;5010577;28;20049;-78
2023/07/14 05:02:46;;;;;;;4.15;2.75;;;;;;;18.38;39.23;101299.41;5026795;28;20042;-78
2023/07/14 05:05:17;;;;;;;5.90;2.97;;;;;;;18.42;39.67;101302.69;5013365;28;20521;-78
2023/07/14 05:07:47;;;;;;;4.82;2.85;;;;;;;18.40;39.60;101302.84;5008405;28;20053;-79
2023/07/14 05:10:15;;;;;;;4.05;2.70;;;;;;;18.42;39.10;101298.00;5007053;28;20046;-80
2023/07/14 05:12:43;;;;;;;5.07;2.90;;;;;;;18.44;39.54;101295.06;5016757;28;20038;-81
2023/07/14 05:15:11;;;;;;;5.05;2.85;;;;;;;18.46;39.78;101299.41;5014748;28;20046;-81
2023/07/14 05:17:42;;;;;;;4.80;2.78;;;;;;;18.49;39.35;101301.84;5022710;28;20049;-80
2023/07/14 05:20:12;;;;;;;4.70;2.80;;;;;;;18.50;39.31;101300.81;5020881;28;20077;-80
2023/07/14 05:22:42;;;;;;;4.43;2.67;;;;;;;18.54;39.54;101300.47;5033567;28;20054;-79
2023/07/14 05:25:10;;;;;;;4.38;2.50;;;;;;;18.54;39.70;101289.38;5013695;28;20046;-84
2023/07/14 05:27:39;;;;;;;5.07;2.70;;;;;;;18.58;39.96;101291.59;5012158;28;20050;-80
2023/07/14 05:30:09;;;;;;;5.38;2.90;;;;;;;18.61;40.02;101296.81;5014183;28;20481;-79
2023/07/14 05:32:37;;;;;;;5.90;2.70;;;;;;;18.62;39.68;101301.31;5016469;28;20127;-78
2023/07/14 05:35:07;;;;;;;5.22;2.70;;;;;;;18.69;39.85;101295.91;5016219;28;20756;-79
2023/07/14 05:37:35;;;;;;;6.75;3.28;;;;;;;18.69;40.01;101288.47;5009403;28;20141;-79
2023/07/14 05:40:06;;;;;;;4.50;2.60;;;;;;;18.74;39.56;101299.00;5025307;28;20058;-78
2023/07/14 05:42:34;;;;;;;4.82;3.00;;;;;;;18.75;39.79;101297.97;5009015;28;20045;-79
2023/07/14 05:45:03;;;;;;;4.70;2.90;;;;;;;18.78;39.80;101294.84;5008264;28;20088;-79
2023/07/14 05:47:31;;;;;;;4.65;2.63;;;;;;;18.81;39.31;101300.03;5011221;28;20057;-79
2023/07/14 05:50:00;;;;;;;3.15;2.33;;;;;;;18.83;39.87;101297.94;5009833;28;20042;-79
2023/07/14 05:52:29;;;;;;;4.50;2.53;;;;;;;18.88;39.36;101299.13;5023901;28;21166;-79
2023/07/14 05:54:57;;;;;;;3.85;2.58;;;;;;;18.90;39.78;101298.97;5008731;28;20037;-78
2023/07/14 05:57:25;;;;;;;5.47;2.72;;;;;;;18.95;39.96;101301.22;5009037;28;20524;-78
2023/07/14 05:59:53;;;;;;;4.50;2.60;;;;;;;18.99;39.87;101305.34;5009610;28;20062;-79
2023/07/14 06:02:22;;;;;;;4.47;2.90;;;;;;;19.07;39.71;101306.19;5024976;28;20093;-78
2023/07/14 06:04:50;;;;;;;4.82;3.20;;;;;;;19.13;40.10;101305.47;5008270;28;20046;-78
2023/07/14 06:07:19;;;;;;;4.25;2.90;;;;;;;19.23;39.67;101291.41;5011627;28;20049;-78
2023/07/14 06:09:49;;;;;;;5.05;2.80;;;;;;;19.36;39.79;101300.03;5027422;28;20158;-80
2023/07/14 06:12:16;;;;;;;4.53;2.92;;;;;;;19.42;39.66;101290.97;5016401;28;20389;-80
2023/07/14 06:14:44;;;;;;;8.07;2.95;;;;;;;19.55;39.49;101293.13;5016045;28;20069;-78
2023/07/14 06:17:13;;;;;;;6.22;3.03;;;;;;;19.65;39.23;101296.56;5010474;28;20080;-78
2023/07/14 06:19:41;;;;;;;5.55;3.00;;;;;;;19.77;39.45;101294.22;5008147;28;20417;-79
2023/07/14 06:22:09;;;;;;;3.75;2.42;;;;;;;19.87;39.16;101292.09;5025684;28;20446;-80
2023/07/14 06:24:36;;;;;;;5.50;2.80;;;;;;;19.97;39.08;101290.81;5012100;28;20681;-79
2023/07/14 06:27:06;;;;;;;5.05;2.65;;;;;;;20.12;39.08;101282.50;5023672;28;20042;-80
2023/07/14 06:29:38;;;;;;;3.85;2.55;;;;;;;20.20;38.80;101287.16;5025152;28;20053;-78
2023/07/14 06:32:07;;;;;;;4.60;2.38;;;;;;;20.30;38.66;101280.25;5010569;28;20046;-78
2023/07/14 06:34:35;;;;;;;4.60;2.30;;;;;;;20.39;38.53;101279.13;5009874;28;20038;-79
2023/07/14 06:37:03;;;;;;;3.80;2.50;;;;;;;20.50;38.41;101277.81;5021704;28;20058;-80
2023/07/14 06:39:31;;;;;;;4.38;2.55;;;;;;;20.58;38.16;101272.19;5011014;28;20045;-80
2023/07/14 06:41:58;;;;;;;4.72;2.50;;;;;;;20.67;37.60;101268.28;5009594;28;20045;-78
2023/07/14 06:44:28;;;;;;;5.15;2.60;;;;;;;20.76;37.76;101271.84;5027229;28;20072;-81
2023/07/14 06:46:56;;;;;;;4.47;2.70;;;;;;;20.82;37.36;101272.97;5011351;28;20076;-80
2023/07/14 06:49:24;;;;;;;4.95;2.28;;;;;;;20.88;37.27;101263.84;5023569;28;20445;-79
2023/07/14 06:51:55;;;;;;;4.05;2.42;;;;;;;20.93;37.40;101264.16;5023211;28;20084;-82
2023/07/14 06:54:23;;;;;;;3.95;2.33;;;;;;;21.03;37.20;101264.72;5018591;28;20339;-77
2023/07/14 06:56:51;;;;;;;3.80;2.30;;;;;;;21.10;37.22;101257.34;5008744;28;20042;-74
2023/07/14 06:59:19;;;;;;;5.53;2.38;;;;;;;21.18;37.44;101256.38;5041377;28;20045;-77
2023/07/14 07:01:48;;;;;;;5.55;2.33;;;;;;;21.28;37.29;101251.38;5007453;28;20065;-77
2023/07/14 07:04:16;;;;;;;5.03;2.65;;;;;;;21.33;37.00;101248.88;5016415;28;20494;-76
2023/07/14 07:06:44;;;;;;;3.95;2.42;;;;;;;21.42;36.76;101247.72;5041155;28;20041;-76
2023/07/14 07:09:12;;;;;;;4.47;2.42;;;;;;;21.48;36.60;101250.56;5027697;28;20560;-76
2023/07/14 07:11:40;;;;;;;3.88;2.33;;;;;;;21.56;36.63;101257.06;5025891;28;20095;-76
2023/07/14 07:14:08;;;;;;;4.45;2.17;;;;;;;21.62;36.19;101248.78;5019622;28;20041;-76
2023/07/14 07:16:36;;;;;;;9.10;2.17;;;;;;;21.69;36.15;101246.91;5035852;28;20045;-76
2023/07/14 07:19:05;;;;;;;3.38;1.98;;;;;;;21.78;35.98;101245.72;5023259;28;20527;-77
2023/07/14 07:21:34;;;;;;;3.03;1.80;;;;;;;21.83;35.67;101240.44;5012643;28;20276;-76
2023/07/14 07:24:04;;;;;;;4.10;1.92;;;;;;;21.92;35.22;101246.78;5015929;28;20772;-77
2023/07/14 07:26:32;;;;;;;3.60;1.85;;;;;;;21.95;35.35;101242.72;5024750;28;20548;-77
2023/07/14 07:29:00;;;;;;;4.50;1.88;;;;;;;22.01;35.34;101241.94;5029727;28;20670;-77
2023/07/14 07:31:29;;;;;;;3.47;2.15;;;;;;;22.06;35.26;101237.47;5023608;28;20045;-78
2023/07/14 07:33:57;;;;;;;3.83;1.95;;;;;;;22.12;35.23;101233.00;5029838;28;20607;-78
2023/07/14 07:36:27;;;;;;;4.47;2.33;;;;;;;22.21;35.28;101229.00;5038108;28;20428;-77
2023/07/14 07:38:55;;;;;;;4.95;2.20;;;;;;;22.26;35.29;101235.69;5036924;28;20409;-77
2023/07/14 07:41:26;;;;;;;3.60;1.92;;;;;;;22.35;34.62;101229.97;5030918;28;20033;-77
2023/07/14 07:43:54;;;;;;;3.40;1.98;;;;;;;22.38;34.53;101232.34;5028242;28;20034;-81
2023/07/14 07:46:23;;;;;;;4.00;2.08;;;;;;;22.41;34.21;101227.25;5026072;28;20133;-81
2023/07/14 07:48:51;;;;;;;3.38;1.75;;;;;;;22.45;34.18;101227.69;5013392;28;20042;-80
2023/07/14 07:51:19;;;;;;;3.83;1.88;;;;;;;22.47;34.18;101228.34;5010329;28;20178;-81
2023/07/14 07:53:49;;;;;;;4.07;1.70;;;;;;;22.53;34.27;101224.72;5030135;28;20052;-81
2023/07/14 07:56:17;;;;;;;2.80;1.70;;;;;;;22.55;34.43;101220.72;5042121;28;20128;-81
2023/07/14 07:58:45;;;;;;;4.97;2.10;;;;;;;22.61;34.15;101214.31;5006700;28;20049;-80
2023/07/14 08:01:18;;;;;;;4.72;2.25;;;;;;;22.71;33.64;101215.88;5021021;28;20048;-80
2023/07/14 08:03:47;;;;;;;3.88;1.83;;;;;;;22.76;34.08;101205.81;5035255;28;20050;-79
2023/07/14 08:06:16;;;;;;;2.60;1.50;;;;;;;22.83;34.10;101203.06;5025680;28;20401;-80
2023/07/14 08:08:44;;;;;;;3.67;1.98;;;;;;;22.90;33.81;101202.03;5021028;28;20049;-82
2023/07/14 08:11:14;;;;;;;5.03;1.60;;;;;;;23.01;33.50;101198.63;5008654;28;20529;-82
2023/07/14 08:13:42;;;;;;;3.15;1.58;;;;;;;23.08;33.38;101195.03;5027923;28;20053;-81
2023/07/14 08:16:10;;;;;;;3.65;1.67;;;;;;;23.17;33.56;101194.66;5016648;28;20037;-79
2023/07/14 08:18:39;;;;;;;3.17;1.70;;;;;;;23.25;33.29;101191.66;5018656;28;20121;-80
2023/07/14 08:21:06;;;;;;;3.28;1.92;;;;;;;23.33;32.90;101191.47;5022145;28;20216;-80
2023/07/14 08:23:36;;;;;;;3.70;1.65;;;;;;;23.41;32.77;101184.88;5021585;28;20394;-81
2023/07/14 08:26:06;;;;;;;3.80;1.60;;;;;;;23.48;32.65;101194.13;5035720;28;20046;-81
2023/07/14 08:28:35;;;;;;;3.28;1.88;;;;;;;23.55;32.15;101192.19;5016255;28;20046;-81
2023/07/14 08:31:06;;;;;;;3.92;1.90;;;;;;;23.61;32.34;101194.13;5033511;28;20137;-79
2023/07/14 08:33:35;;;;;;;3.40;1.83;;;;;;;23.62;32.42;101187.47;5022411;28;20049;-79
2023/07/14 08:36:05;;;;;;;2.97;1.70;;;;;;;23.72;32.14;101182.34;5036926;28;20066;-79
2023/07/14 08:38:34;;;;;;;4.45;1.52;;;;;;;23.77;32.12;101182.56;5042436;28;20052;-78
2023/07/14 08:41:12;;;;;;;3.50;1.70;;;;;;;23.86;31.20;101191.63;5040562;28;20042;-79
2023/07/14 08:43:58;;;;;;;3.25;1.60;;;;;;;23.92;31.11;101179.56;5039908;28;20058;-79
2023/07/14 08:46:33;;;;;;;4.20;1.52;;;;;;;23.94;31.51;101180.22;5040195;28;20065;-79
2023/07/14 08:49:05;;;;;;;3.13;1.77;;;;;;;24.01;30.69;101183.00;5029864;28;20538;-79
2023/07/14 08:51:38;;;;;;;2.65;1.58;;;;;;;24.02;31.04;101182.78;5014158;28;20178;-79
2023/07/14 08:54:14;;;;;;;3.33;1.70;;;;;;;24.06;30.51;101178.50;5019053;28;20053;-79
2023/07/14 08:56:42;;;;;;;2.63;1.42;;;;;;;24.06;31.02;101172.06;5036648;28;20053;-78
2023/07/14 08:59:18;;;;;;;3.72;1.58;;;;;;;24.10;30.63;101170.53;5031374;28;20038;-79
2023/07/14 09:01:51;;;;;;;2.78;1.63;;;;;;;24.12;30.34;101172.03;5028045;28;20505;-79
2023/07/14 09:04:24;;;;;;;3.70;1.80;;;;;;;24.15;30.61;101170.75;5034685;28;20117;-79
2023/07/14 09:06:52;;;;;;;3.60;1.90;;;;;;;24.15;30.65;101166.00;5036302;28;20077;-78
2023/07/14 09:09:31;;;;;;;3.92;1.90;;;;;;;24.23;30.52;101164.94;5034146;28;20073;-78
2023/07/14 09:12:12;;;;;;;4.13;1.80;;;;;;;24.30;29.91;101163.00;5023016;28;20054;-79
2023/07/14 09:14:55;;;;;;;3.10;1.83;;;;;;;24.36;29.70;101166.88;5008599;28;20076;-79
2023/07/14 09:17:41;;;;;;;2.92;1.63;;;;;;;24.43;30.12;101167.72;5025895;28;20497;-79
2023/07/14 09:20:24;;;;;;;3.95;1.80;;;;;;;24.49;29.79;101152.84;5028115;28;20049;-79
2023/07/14 09:23:03;;;;;;;3.03;1.90;;;;;;;24.56;28.88;101158.44;5044393;28;20101;-80
2023/07/14 09:25:38;;;;;;;2.55;1.63;;;;;;;24.64;29.65;101152.63;5028703;28;20051;-80
2023/07/14 09:28:12;;;;;;;3.30;1.60;;;;;;;24.68;29.35;101153.88;5028912;28;20080;-80
2023/07/14 09:30:43;;;;;;;3.05;1.80;;;;;;;24.73;29.68;101148.50;5026369;28;20497;-79
2023/07/14 09:33:15;;;;;;;3.17;1.55;;;;;;;24.78;29.60;101143.09;5028058;28;20053;-80
2023/07/14 09:35:45;;;;;;;4.57;2.00;;;;;;;24.79;29.53;101144.81;5029213;28;20460;-79
2023/07/14 09:38:22;;;;;;;3.47;1.92;;;;;;;24.88;29.03;101146.28;5029801;28;20045;-79
2023/07/14 09:40:57;;;;;;;2.67;1.60;;;;;;;24.95;28.62;101146.28;5044462;28;20116;-80
2023/07/14 09:43:25;;;;;;;4.05;2.08;;;;;;;24.97;29.05;101135.72;5028245;28;20497;-79
2023/07/14 09:45:55;;;;;;;4.68;1.80;;;;;;;25.04;28.75;101129.00;5030358;28;20109;-78
2023/07/14 09:48:26;;;;;;;4.15;2.00;;;;;;;25.08;28.74;101135.84;5025710;28;20049;-79
2023/07/14 09:51:00;;;;;;;3.85;2.20;;;;;;;25.13;28.48;101138.84;5040069;28;20046;-79
2023/07/14 09:53:28;;;;;;;3.38;1.90;;;;;;;25.18;28.83;101136.22;5037811;28;20572;-78
2023/07/14 09:55:59;;;;;;;3.83;1.90;;;;;;;25.23;28.31;101139.22;5029254;28;20049;-80
2023/07/14 09:58:29;;;;;;;3.72;1.80;;;;;;;25.26;28.30;101126.69;5029100;28;20049;-80
2023/07/14 10:01:02;;;;;;;3.28;1.80;;;;;;;25.30;27.99;101111.19;5028895;28;20049;-77
2023/07/14 10:03:41;;;;;;;4.55;2.05;;;;;;;25.32;27.56;101108.97;5041889;28;20058;-79
2023/07/14 10:06:16;;;;;;;3.20;1.52;;;;;;;25.34;27.90;101094.75;5011873;28;20054;-78
2023/07/14 10:08:48;;;;;;;3.03;1.88;;;;;;;25.34;27.79;101109.63;5012913;28;20046;-78
2023/07/14 10:11:20;;;;;;;3.13;1.70;;;;;;;25.39;27.41;101101.38;5028307;28;20176;-78
2023/07/14 10:13:54;;;;;;;3.22;1.70;;;;;;;25.40;27.52;101102.25;5027693;28;20042;-78
2023/07/14 10:16:26;;;;;;;3.60;2.00;;;;;;;25.41;27.15;101095.56;5011889;28;20042;-78
2023/07/14 10:18:56;;;;;;;3.60;1.88;;;;;;;25.39;27.47;101086.56;5018510;28;20430;-78
2023/07/14 10:21:28;;;;;;;2.83;1.52;;;;;;;25.42;27.21;101086.06;5028996;28;20566;-79
2023/07/14 10:24:00;;;;;;;3.47;2.03;;;;;;;25.41;27.27;101081.56;5028773;28;20049;-78
2023/07/14 10:26:31;;;;;;;4.00;1.70;;;;;;;25.43;26.97;101076.59;5049555;28;20099;-78
2023/07/14 10:28:59;;;;;;;3.15;1.85;;;;;;;25.42;27.31;101072.06;5028526;28;20046;-77
2023/07/14 10:31:36;;;;;;;3.92;1.80;;;;;;;25.47;26.91;101072.25;5048966;28;20061;-77
2023/07/14 10:34:25;;;;;;;2.95;1.88;;;;;;;25.48;26.88;101073.94;5032024;28;20049;-80
2023/07/14 10:36:58;;;;;;;4.95;2.28;;;;;;;25.49;27.07;101068.13;5019094;28;20073;-79
2023/07/14 10:39:36;;;;;;;3.67;1.95;;;;;;;25.54;26.84;101062.75;5007820;28;20054;-80
2023/07/14 10:42:10;;;;;;;3.97;1.80;;;;;;;25.57;27.00;101055.81;5021139;28;20050;-80
2023/07/14 10:44:42;;;;;;;3.05;1.55;;;;;;;25.60;26.79;101052.56;5025958;28;20454;-80
2023/07/14 10:47:17;;;;;;;3.72;1.90;;;;;;;25.61;26.60;101034.66;5012167;28;20196;-81
2023/07/14 10:49:57;;;;;;;4.05;1.90;;;;;;;25.64;26.03;101035.03;5010506;28;20616;-81
2023/07/14 10:52:29;;;;;;;5.35;1.92;;;;;;;25.68;26.56;101034.59;5031496;28;20060;-80
2023/07/14 10:55:03;;;;;;;4.78;1.90;;;;;;;25.71;26.21;101026.59;5024989;28;20120;-80
2023/07/14 10:57:42;;;;;;;3.78;1.80;;;;;;;25.74;25.99;101017.69;5017389;28;20038;-79
2023/07/14 11:00:22;;;;;;;3.28;1.70;;;;;;;25.77;25.90;101016.38;5019574;28;20073;-81
2023/07/14 11:03:16;;;;;;;2.60;1.52;;;;;;;25.76;26.01;101012.72;5029031;28;20058;-81
2023/07/14 11:05:53;;;;;;;3.47;1.63;;;;;;;25.82;25.91;101023.00;5015076;28;20104;-82
2023/07/14 11:08:23;;;;;;;2.83;1.63;;;;;;;25.85;25.70;101011.34;5030018;28;20041;-81
2023/07/14 11:10:57;;;;;;;3.55;1.70;;;;;;;25.91;25.38;101004.78;5029105;28;20041;-80
2023/07/14 11:13:37;;;;;;;2.42;1.60;;;;;;;25.97;25.42;100994.56;5030992;28;20049;-80
2023/07/14 11:16:09;;;;;;;3.35;1.80;;;;;;;26.01;25.55;100995.84;5030498;28;20132;-81
2023/07/14 11:18:44;;;;;;;;;;;;;;;25.74;26.27;100989.66;5043302;28;20467;-81
2023/07/14 11:21:32;;;;;;;3.20;1.52;;;;;;;26.08;25.41;100990.19;5039194;28;19925;-81
2023/07/14 11:24:14;;;;;;;2.60;1.60;;;;;;;26.22;25.14;100986.13;5032369;28;20064;-81
2023/07/14 11:27:00;;;;;;;4.30;2.00;;;;;;;26.27;24.80;100989.09;5036206;28;20060;-81
2023/07/14 11:29:32;;;;;;;3.33;1.70;;;;;;;26.34;25.44;100984.25;5032934;28;20417;-82
2023/07/14 11:32:02;;;;;;;2.88;1.63;;;;;;;26.43;25.34;100973.56;5027006;28;20053;-82
2023/07/14 11:34:36;;;;;;;2.75;1.55;;;;;;;26.52;24.93;100972.13;5010272;28;20060;-83
2023/07/14 11:37:19;;;;;;;3.72;1.55;;;;;;;26.61;24.68;100962.28;5021807;28;20038;-83
2023/07/14 11:39:52;;;;;;;4.45;1.70;;;;;;;26.68;24.66;100946.25;5030330;28;20091;-83
2023/07/14 11:42:24;;;;;;;3.03;1.65;;;;;;;26.75;24.88;100942.22;5026660;28;20041;-83
2023/07/14 11:44:54;;;;;;;3.63;1.80;;;;;;;26.82;24.78;100944.94;5028408;28;20159;-83